createdAt,value
2023-05-09T00:00:04.986Z,13.73
2023-05-09T00:01:04.994Z,13.75
2023-05-09T00:02:05.029Z,13.71
2023-05-09T00:03:05.016Z,13.73
2023-05-09T00:04:04.993Z,13.69
2023-05-09T00:05:04.988Z,13.70
2023-05-09T00:06:04.959Z,13.66
2023-05-09T00:07:04.916Z,13.67
2023-05-09T00:08:04.929Z,13.64
2023-05-09T00:09:04.949Z,13.64
2023-05-09T00:10:05.003Z,13.67
2023-05-09T00:11:04.926Z,13.63
2023-05-09T00:12:04.982Z,13.64
2023-05-09T00:13:04.937Z,13.64
2023-05-09T00:14:04.832Z,13.64
2023-05-09T00:15:04.835Z,13.64
2023-05-09T00:16:04.850Z,13.63
2023-05-09T00:17:04.803Z,13.67
2023-05-09T00:18:04.790Z,13.67
2023-05-09T00:19:04.789Z,13.69
2023-05-09T00:20:04.768Z,13.66
2023-05-09T00:21:04.769Z,13.67
2023-05-09T00:22:04.742Z,13.67
2023-05-09T00:23:04.738Z,13.66
2023-05-09T00:24:04.717Z,13.66
2023-05-09T00:25:04.720Z,13.66
2023-05-09T00:26:04.722Z,13.64
2023-05-09T00:27:04.693Z,13.66
2023-05-09T00:28:04.677Z,13.63
2023-05-09T00:29:04.683Z,13.63
2023-05-09T00:30:04.658Z,13.63
2023-05-09T00:31:04.659Z,13.62
2023-05-09T00:32:04.694Z,13.63
2023-05-09T00:33:05.293Z,13.62
2023-05-09T00:34:04.619Z,13.59
2023-05-09T00:35:04.613Z,13.60
2023-05-09T00:36:04.589Z,13.60
2023-05-09T00:37:04.592Z,13.59
2023-05-09T00:38:04.568Z,13.59
2023-05-09T00:39:04.563Z,13.62
2023-05-09T00:40:04.551Z,13.60
2023-05-09T00:41:04.589Z,13.60
2023-05-09T00:42:04.532Z,13.59
2023-05-09T00:43:04.526Z,13.57
2023-05-09T00:44:04.512Z,13.59
2023-05-09T00:45:04.748Z,13.57
2023-05-09T00:46:04.559Z,13.54
2023-05-09T00:47:04.478Z,13.54
2023-05-09T00:48:04.478Z,13.51
2023-05-09T00:49:04.472Z,13.49
2023-05-09T00:50:04.437Z,13.48
2023-05-09T00:51:04.437Z,13.46
2023-05-09T00:52:04.425Z,13.42
2023-05-09T00:53:04.418Z,13.41
2023-05-09T00:54:05.234Z,13.39
2023-05-09T00:55:04.439Z,13.36
2023-05-09T00:56:04.384Z,13.32
2023-05-09T00:57:04.557Z,13.33
2023-05-09T00:58:04.362Z,13.32
2023-05-09T00:59:04.352Z,13.32
2023-05-09T01:00:04.337Z,13.38
2023-05-09T01:01:04.386Z,13.38
2023-05-09T01:02:04.573Z,13.36
2023-05-09T01:03:04.435Z,13.33
2023-05-09T01:04:04.284Z,13.33
2023-05-09T01:05:04.281Z,13.32
2023-05-09T01:06:04.275Z,13.30
2023-05-09T01:07:04.264Z,13.26
2023-05-09T01:08:04.249Z,13.23
2023-05-09T01:09:04.239Z,13.22
2023-05-09T01:10:04.222Z,13.19
2023-05-09T01:11:04.230Z,13.17
2023-05-09T01:12:04.270Z,13.19
2023-05-09T01:13:04.273Z,13.14
2023-05-09T01:14:04.179Z,13.12
2023-05-09T01:15:04.178Z,13.11
2023-05-09T01:16:04.176Z,13.08
2023-05-09T01:17:04.172Z,13.08
2023-05-09T01:18:04.160Z,13.08
2023-05-09T01:19:04.156Z,13.08
2023-05-09T01:20:04.115Z,13.08
2023-05-09T01:21:04.137Z,13.08
2023-05-09T01:22:04.091Z,13.07
2023-05-09T01:23:04.088Z,13.07
2023-05-09T01:24:04.066Z,13.07
2023-05-09T01:25:04.065Z,13.05
2023-05-09T01:26:04.053Z,13.04
2023-05-09T01:27:04.048Z,13.04
2023-05-09T01:28:04.026Z,13.04
2023-05-09T01:29:04.034Z,13.03
2023-05-09T01:30:04.012Z,13.03
2023-05-09T01:31:04.041Z,13.00
2023-05-09T01:32:03.975Z,12.97
2023-05-09T01:33:10.725Z,13.00
2023-05-09T01:34:03.970Z,13.01
2023-05-09T01:35:03.950Z,12.97
2023-05-09T01:36:03.944Z,13.01
2023-05-09T01:37:03.932Z,13.01
2023-05-09T01:38:03.947Z,13.01
2023-05-09T01:39:03.908Z,13.03
2023-05-09T01:40:03.897Z,13.01
2023-05-09T01:41:03.880Z,13.03
2023-05-09T01:42:03.891Z,13.04
2023-05-09T01:43:03.870Z,13.05
2023-05-09T01:44:03.886Z,13.07
2023-05-09T01:45:03.845Z,13.07
2023-05-09T01:46:03.872Z,13.10
2023-05-09T01:47:03.820Z,13.10
2023-05-09T01:48:03.887Z,13.10
2023-05-09T01:49:03.793Z,13.14
2023-05-09T01:50:03.811Z,13.14
2023-05-09T01:51:03.768Z,13.15
2023-05-09T01:52:03.769Z,13.14
2023-05-09T01:53:03.752Z,13.17
2023-05-09T01:54:04.552Z,13.17
2023-05-09T01:55:03.736Z,13.19
2023-05-09T01:56:03.730Z,13.17
2023-05-09T01:57:03.721Z,13.19
2023-05-09T01:58:03.734Z,13.17
2023-05-09T01:59:04.511Z,13.19
2023-05-09T02:00:03.692Z,13.19
2023-05-09T02:01:03.721Z,13.20
2023-05-09T02:02:03.726Z,13.20
2023-05-09T02:03:03.682Z,13.23
2023-05-09T02:04:03.647Z,13.22
2023-05-09T02:05:03.634Z,13.23
2023-05-09T02:06:03.620Z,13.25
2023-05-09T02:07:03.603Z,13.25
2023-05-09T02:08:03.609Z,13.25
2023-05-09T02:09:03.577Z,13.25
2023-05-09T02:10:03.584Z,13.25
2023-05-09T02:11:03.560Z,13.26
2023-05-09T02:12:03.551Z,13.25
2023-05-09T02:13:03.543Z,13.23
2023-05-09T02:14:03.526Z,13.25
2023-05-09T02:15:03.522Z,13.23
2023-05-09T02:16:03.506Z,13.23
2023-05-09T02:17:03.536Z,13.22
2023-05-09T02:18:03.520Z,13.22
2023-05-09T02:19:03.483Z,13.23
2023-05-09T02:20:03.462Z,13.23
2023-05-09T02:21:03.484Z,13.22
2023-05-09T02:22:03.440Z,13.23
2023-05-09T02:23:03.424Z,13.28
2023-05-09T02:24:03.426Z,13.29
2023-05-09T02:25:03.405Z,13.29
2023-05-09T02:26:03.404Z,13.28
2023-05-09T02:27:03.410Z,13.26
2023-05-09T02:28:03.383Z,13.23
2023-05-09T02:29:03.360Z,13.23
2023-05-09T02:30:03.346Z,13.19
2023-05-09T02:31:03.337Z,13.19
2023-05-09T02:32:03.378Z,13.19
2023-05-09T02:33:03.369Z,13.15
2023-05-09T02:34:03.319Z,13.17
2023-05-09T02:35:03.301Z,13.17
2023-05-09T02:36:03.293Z,13.15
2023-05-09T02:37:03.263Z,13.17
2023-05-09T02:38:03.322Z,13.19
2023-05-09T02:39:03.270Z,13.17
2023-05-09T02:40:03.244Z,13.19
2023-05-09T02:41:03.244Z,13.17
2023-05-09T02:42:03.226Z,13.19
2023-05-09T02:43:03.200Z,13.20
2023-05-09T02:44:03.206Z,13.17
2023-05-09T02:45:03.192Z,13.19
2023-05-09T02:46:03.264Z,13.17
2023-05-09T02:47:03.164Z,13.20
2023-05-09T02:48:03.301Z,13.20
2023-05-09T02:49:03.147Z,13.20
2023-05-09T02:50:03.139Z,13.20
2023-05-09T02:51:03.128Z,13.22
2023-05-09T02:52:03.134Z,13.23
2023-05-09T02:53:03.097Z,13.23
2023-05-09T02:54:03.106Z,13.23
2023-05-09T02:55:03.069Z,13.25
2023-05-09T02:56:03.068Z,13.23
2023-05-09T02:57:03.039Z,13.20
2023-05-09T02:58:13.440Z,13.22
2023-05-09T02:59:04.050Z,13.20
2023-05-09T03:00:03.032Z,13.20
2023-05-09T03:01:03.058Z,13.20
2023-05-09T03:02:03.409Z,13.20
2023-05-09T03:03:03.074Z,13.19
2023-05-09T03:04:02.982Z,13.20
2023-05-09T03:05:02.966Z,13.23
2023-05-09T03:06:03.148Z,13.22
2023-05-09T03:07:02.942Z,13.23
2023-05-09T03:08:02.940Z,13.20
2023-05-09T03:09:02.942Z,13.20
2023-05-09T03:10:02.930Z,13.22
2023-05-09T03:11:03.722Z,13.22
2023-05-09T03:12:02.901Z,13.22
2023-05-09T03:13:02.909Z,13.20
2023-05-09T03:14:03.090Z,13.22
2023-05-09T03:15:02.862Z,13.22
2023-05-09T03:16:02.919Z,13.25
2023-05-09T03:17:02.842Z,13.23
2023-05-09T03:18:02.855Z,13.23
2023-05-09T03:19:02.869Z,13.22
2023-05-09T03:20:04.260Z,13.20
2023-05-09T03:21:02.808Z,13.19
2023-05-09T03:22:02.813Z,13.19
2023-05-09T03:23:02.807Z,13.17
2023-05-09T03:24:02.779Z,13.17
2023-05-09T03:25:02.764Z,13.17
2023-05-09T03:26:02.751Z,13.17
2023-05-09T03:27:02.736Z,13.17
2023-05-09T03:28:02.711Z,13.17
2023-05-09T03:29:02.715Z,13.15
2023-05-09T03:30:02.692Z,13.15
2023-05-09T03:31:02.710Z,13.17
2023-05-09T03:32:02.666Z,13.19
2023-05-09T03:33:02.677Z,13.17
2023-05-09T03:34:02.947Z,13.19
2023-05-09T03:35:02.665Z,13.15
2023-05-09T03:36:02.627Z,13.19
2023-05-09T03:37:02.687Z,13.20
2023-05-09T03:38:02.757Z,13.19
2023-05-09T03:39:02.624Z,13.20
2023-05-09T03:40:02.577Z,13.20
2023-05-09T03:41:02.589Z,13.23
2023-05-09T03:42:02.559Z,13.26
2023-05-09T03:43:02.554Z,13.30
2023-05-09T03:44:02.525Z,13.33
2023-05-09T03:45:02.531Z,13.32
2023-05-09T03:46:02.502Z,13.36
2023-05-09T03:47:02.577Z,13.36
2023-05-09T03:48:02.529Z,13.38
2023-05-09T03:49:02.497Z,13.39
2023-05-09T03:50:02.466Z,13.39
2023-05-09T03:51:02.468Z,13.42
2023-05-09T03:52:02.446Z,13.42
2023-05-09T03:53:02.457Z,13.42
2023-05-09T03:54:02.443Z,13.45
2023-05-09T03:55:02.429Z,13.48
2023-05-09T03:56:02.408Z,13.51
2023-05-09T03:57:02.427Z,13.54
2023-05-09T03:58:02.382Z,13.52
2023-05-09T03:59:02.374Z,13.55
2023-05-09T04:00:02.360Z,13.57
2023-05-09T04:01:02.373Z,13.59
2023-05-09T04:02:02.409Z,13.59
2023-05-09T04:03:02.404Z,13.62
2023-05-09T04:04:02.394Z,13.62
2023-05-09T04:05:02.317Z,13.64
2023-05-09T04:06:03.138Z,13.64
2023-05-09T04:07:02.293Z,13.66
2023-05-09T04:08:02.261Z,13.66
2023-05-09T04:09:02.272Z,13.69
2023-05-09T04:10:02.255Z,13.67
2023-05-09T04:11:02.413Z,13.69
2023-05-09T04:12:02.216Z,13.69
2023-05-09T04:13:02.242Z,13.69
2023-05-09T04:14:02.197Z,13.70
2023-05-09T04:15:02.205Z,13.70
2023-05-09T04:16:02.204Z,13.73
2023-05-09T04:17:02.421Z,13.75
2023-05-09T04:18:02.203Z,13.73
2023-05-09T04:19:02.553Z,13.75
2023-05-09T04:20:02.149Z,13.77
2023-05-09T04:21:02.150Z,13.79
2023-05-09T04:22:02.125Z,13.78
2023-05-09T04:23:02.139Z,13.81
2023-05-09T04:24:02.110Z,13.81
2023-05-09T04:25:02.211Z,13.84
2023-05-09T04:26:03.091Z,13.85
2023-05-09T04:27:02.079Z,13.85
2023-05-09T04:28:02.057Z,13.87
2023-05-09T04:29:02.076Z,13.89
2023-05-09T04:30:02.062Z,13.91
2023-05-09T04:31:02.095Z,13.92
2023-05-09T04:32:02.242Z,13.89
2023-05-09T04:33:02.030Z,13.88
2023-05-09T04:34:02.019Z,13.88
2023-05-09T04:35:01.999Z,13.91
2023-05-09T04:36:01.973Z,13.95
2023-05-09T04:37:01.962Z,13.96
2023-05-09T04:38:01.948Z,13.99
2023-05-09T04:39:01.951Z,14.00
2023-05-09T04:40:01.939Z,14.03
2023-05-09T04:41:01.959Z,14.02
2023-05-09T04:42:01.903Z,14.04
2023-05-09T04:43:01.910Z,14.03
2023-05-09T04:44:01.885Z,14.03
2023-05-09T04:45:01.880Z,14.04
2023-05-09T04:46:01.863Z,14.07
2023-05-09T04:47:01.854Z,14.07
2023-05-09T04:48:01.917Z,14.09
2023-05-09T04:49:01.831Z,14.09
2023-05-09T04:50:01.812Z,14.07
2023-05-09T04:51:01.840Z,14.04
2023-05-09T04:52:01.786Z,14.04
2023-05-09T04:53:01.803Z,14.07
2023-05-09T04:54:01.782Z,14.14
2023-05-09T04:55:01.765Z,14.14
2023-05-09T04:56:01.852Z,14.18
2023-05-09T04:57:13.708Z,14.18
2023-05-09T04:58:02.718Z,14.20
2023-05-09T04:59:01.731Z,14.21
2023-05-09T05:00:01.707Z,14.22
2023-05-09T05:01:01.693Z,14.22
2023-05-09T05:02:01.796Z,14.27
2023-05-09T05:03:01.758Z,14.29
2023-05-09T05:04:01.660Z,14.33
2023-05-09T05:05:11.007Z,14.35
2023-05-09T05:06:02.640Z,14.36
2023-05-09T05:07:01.634Z,14.36
2023-05-09T05:08:01.619Z,14.35
2023-05-09T05:09:01.630Z,14.37
2023-05-09T05:10:01.607Z,14.39
2023-05-09T05:11:01.591Z,14.40
2023-05-09T05:12:03.540Z,14.45
2023-05-09T05:13:01.614Z,14.45
2023-05-09T05:14:01.593Z,14.46
2023-05-09T05:15:01.575Z,14.45
2023-05-09T05:16:01.595Z,14.45
2023-05-09T05:17:01.522Z,14.47
2023-05-09T05:18:02.399Z,14.50
2023-05-09T05:19:01.503Z,14.52
2023-05-09T05:20:01.493Z,14.55
2023-05-09T05:21:01.485Z,14.57
2023-05-09T05:22:01.466Z,14.58
2023-05-09T05:23:01.460Z,14.60
2023-05-09T05:24:01.434Z,14.61
2023-05-09T05:25:01.437Z,14.61
2023-05-09T05:26:01.436Z,14.62
2023-05-09T05:27:01.416Z,14.64
2023-05-09T05:28:01.396Z,14.68
2023-05-09T05:29:01.400Z,14.69
2023-05-09T05:30:01.405Z,14.75
2023-05-09T05:31:01.395Z,14.73
2023-05-09T05:32:01.465Z,14.73
2023-05-09T05:33:01.390Z,14.75
2023-05-09T05:34:01.343Z,14.77
2023-05-09T05:35:01.324Z,14.75
2023-05-09T05:36:01.318Z,14.78
2023-05-09T05:37:01.304Z,14.81
2023-05-09T05:38:01.284Z,14.86
2023-05-09T05:39:01.297Z,14.86
2023-05-09T05:40:01.268Z,14.89
2023-05-09T05:41:01.295Z,14.91
2023-05-09T05:42:01.242Z,14.94
2023-05-09T05:43:01.335Z,14.96
2023-05-09T05:44:01.221Z,14.96
2023-05-09T05:45:01.234Z,15.03
2023-05-09T05:46:01.295Z,15.10
2023-05-09T05:47:01.209Z,15.10
2023-05-09T05:48:01.231Z,15.09
2023-05-09T05:49:01.174Z,15.07
2023-05-09T05:50:01.157Z,15.07
2023-05-09T05:51:01.181Z,15.06
2023-05-09T05:52:01.133Z,15.01
2023-05-09T05:53:01.135Z,14.98
2023-05-09T05:54:01.135Z,14.98
2023-05-09T05:55:01.126Z,14.96
2023-05-09T05:56:01.139Z,14.95
2023-05-09T05:57:01.102Z,14.91
2023-05-09T05:58:01.100Z,14.92
2023-05-09T05:59:01.167Z,14.89
2023-05-09T06:00:01.048Z,14.83
2023-05-09T06:01:01.054Z,14.86
2023-05-09T06:02:01.045Z,14.89
2023-05-09T06:03:01.162Z,14.95
2023-05-09T06:04:01.088Z,14.98
2023-05-09T06:05:01.009Z,15.06
2023-05-09T06:06:00.993Z,15.13
2023-05-09T06:07:00.985Z,15.21
2023-05-09T06:08:00.959Z,15.34
2023-05-09T06:09:00.971Z,15.49
2023-05-09T06:10:01.176Z,15.54
2023-05-09T06:11:00.970Z,15.65
2023-05-09T06:12:00.922Z,15.75
2023-05-09T06:13:00.976Z,15.87
2023-05-09T06:14:00.925Z,15.94
2023-05-09T06:15:00.903Z,15.86
2023-05-09T06:16:14.909Z,15.86
2023-05-09T06:17:01.968Z,15.93
2023-05-09T06:18:00.890Z,16.01
2023-05-09T06:19:00.857Z,16.09
2023-05-09T06:20:00.843Z,16.23
2023-05-09T06:21:00.971Z,16.27
2023-05-09T06:22:00.826Z,16.28
2023-05-09T06:23:00.831Z,16.25
2023-05-09T06:24:07.829Z,16.24
2023-05-09T06:25:01.795Z,16.25
2023-05-09T06:26:00.934Z,16.21
2023-05-09T06:27:00.770Z,16.21
2023-05-09T06:28:00.747Z,16.27
2023-05-09T06:29:00.745Z,16.31
2023-05-09T06:30:04.157Z,16.34
2023-05-09T06:31:01.767Z,16.38
2023-05-09T06:32:00.800Z,16.45
2023-05-09T06:33:00.739Z,16.46
2023-05-09T06:34:01.241Z,16.38
2023-05-09T06:35:00.688Z,16.35
2023-05-09T06:36:00.700Z,16.33
2023-05-09T06:37:00.867Z,16.30
2023-05-09T06:38:00.680Z,16.28
2023-05-09T06:39:00.653Z,16.30
2023-05-09T06:40:00.621Z,16.30
2023-05-09T06:41:00.633Z,16.34
2023-05-09T06:42:00.599Z,16.35
2023-05-09T06:43:00.613Z,16.38
2023-05-09T06:44:00.583Z,16.25
2023-05-09T06:45:00.625Z,16.17
2023-05-09T06:46:00.568Z,16.17
2023-05-09T06:47:00.576Z,16.17
2023-05-09T06:48:00.592Z,16.15
2023-05-09T06:49:00.539Z,16.11
2023-05-09T06:50:00.526Z,16.11
2023-05-09T06:51:00.511Z,16.02
2023-05-09T06:52:00.489Z,16.01
2023-05-09T06:53:00.506Z,16.04
2023-05-09T06:54:00.478Z,16.00
2023-05-09T06:55:00.462Z,15.94
2023-05-09T06:56:00.455Z,15.93
2023-05-09T06:57:00.447Z,15.96
2023-05-09T06:58:00.434Z,16.02
2023-05-09T06:59:00.463Z,16.01
2023-05-09T07:00:00.400Z,16.04
2023-05-09T07:01:00.411Z,16.05
2023-05-09T07:02:00.587Z,16.12
2023-05-09T07:03:00.434Z,16.12
2023-05-09T07:04:00.361Z,16.21
2023-05-09T07:05:00.458Z,16.23
2023-05-09T07:06:00.556Z,16.24
2023-05-09T07:07:00.353Z,16.24
2023-05-09T07:08:00.320Z,16.17
2023-05-09T07:09:00.324Z,16.20
2023-05-09T07:10:10.551Z,16.25
2023-05-09T07:11:01.307Z,16.33
2023-05-09T07:12:00.282Z,16.46
2023-05-09T07:13:00.306Z,16.60
2023-05-09T07:14:00.268Z,16.64
2023-05-09T07:15:00.272Z,16.73
2023-05-09T07:16:00.322Z,16.89
2023-05-09T07:17:14.220Z,17.18
2023-05-09T07:18:01.233Z,17.37
2023-05-09T07:19:00.207Z,17.55
2023-05-09T07:20:00.189Z,17.79
2023-05-09T07:21:00.197Z,17.99
2023-05-09T07:22:00.160Z,18.10
2023-05-09T07:23:00.239Z,17.97
2023-05-09T07:24:00.206Z,17.95
2023-05-09T07:25:00.166Z,18.05
2023-05-09T07:26:00.158Z,18.18
2023-05-09T07:27:00.122Z,18.35
2023-05-09T07:28:00.152Z,18.23
2023-05-09T07:29:00.145Z,18.35
2023-05-09T07:30:00.136Z,18.51
2023-05-09T07:31:00.116Z,18.55
2023-05-09T07:32:00.080Z,18.67
2023-05-09T07:33:00.129Z,18.92
2023-05-09T07:34:00.054Z,19.16
2023-05-09T07:35:00.054Z,19.16
2023-05-09T07:36:00.031Z,19.29
2023-05-09T07:37:00.055Z,19.46
2023-05-09T07:38:00.036Z,19.32
2023-05-09T07:38:59.986Z,19.02
2023-05-09T07:39:59.980Z,18.94
2023-05-09T07:40:59.965Z,18.85
2023-05-09T07:42:00.754Z,19.00
2023-05-09T07:42:59.957Z,18.88
2023-05-09T07:43:59.951Z,18.91
2023-05-09T07:44:59.923Z,18.88
2023-05-09T07:45:59.969Z,18.91
2023-05-09T07:46:59.915Z,19.06
2023-05-09T07:47:59.989Z,19.26
2023-05-09T07:48:59.876Z,19.32
2023-05-09T07:49:59.874Z,19.23
2023-05-09T07:50:59.855Z,19.22
2023-05-09T07:51:59.856Z,19.28
2023-05-09T07:52:59.846Z,19.50
2023-05-09T07:53:59.846Z,19.76
2023-05-09T07:54:59.828Z,19.91
2023-05-09T07:55:59.858Z,20.01
2023-05-09T07:56:59.796Z,19.86
2023-05-09T07:57:59.783Z,19.98
2023-05-09T07:58:59.804Z,20.13
2023-05-09T07:59:59.767Z,20.21
2023-05-09T08:00:59.760Z,20.42
2023-05-09T08:01:59.809Z,20.38
2023-05-09T08:03:00.036Z,20.18
2023-05-09T08:03:59.820Z,20.11
2023-05-09T08:05:00.069Z,20.20
2023-05-09T08:05:59.858Z,20.43
2023-05-09T08:06:59.686Z,20.69
2023-05-09T08:07:59.682Z,20.94
2023-05-09T08:08:59.657Z,21.12
2023-05-09T08:09:59.659Z,21.04
2023-05-09T08:10:59.636Z,20.82
2023-05-09T08:11:59.665Z,20.64
2023-05-09T08:12:59.668Z,20.36
2023-05-09T08:13:59.618Z,20.36
2023-05-09T08:14:59.597Z,20.38
2023-05-09T08:15:59.737Z,20.67
2023-05-09T08:16:59.573Z,20.74
2023-05-09T08:17:59.603Z,20.84
2023-05-09T08:18:59.553Z,20.85
2023-05-09T08:19:59.560Z,20.89
2023-05-09T08:20:59.587Z,20.80
2023-05-09T08:22:00.350Z,20.70
2023-05-09T08:22:59.502Z,20.67
2023-05-09T08:23:59.511Z,20.58
2023-05-09T08:24:59.490Z,20.73
2023-05-09T08:25:59.844Z,20.85
2023-05-09T08:26:59.467Z,20.94
2023-05-09T08:27:59.843Z,21.04
2023-05-09T08:28:59.452Z,20.98
2023-05-09T08:29:59.454Z,20.77
2023-05-09T08:30:59.460Z,20.59
2023-05-09T08:31:59.652Z,20.50
2023-05-09T08:32:59.473Z,20.55
2023-05-09T08:33:59.421Z,20.66
2023-05-09T08:34:59.385Z,20.84
2023-05-09T08:35:59.392Z,21.16
2023-05-09T08:37:00.171Z,21.58
2023-05-09T08:37:59.375Z,22.00
2023-05-09T08:38:59.337Z,22.39
2023-05-09T08:39:59.336Z,22.61
2023-05-09T08:40:59.350Z,22.49
2023-05-09T08:42:00.047Z,22.33
2023-05-09T08:42:59.296Z,22.30
2023-05-09T08:43:59.290Z,22.47
2023-05-09T08:44:59.281Z,22.54
2023-05-09T08:45:59.410Z,22.37
2023-05-09T08:46:59.310Z,22.61
2023-05-09T08:47:59.282Z,23.01
2023-05-09T08:48:59.240Z,23.15
2023-05-09T08:49:59.292Z,23.23
2023-05-09T08:50:59.221Z,22.58
2023-05-09T08:51:59.210Z,22.47
2023-05-09T08:52:59.213Z,22.55
2023-05-09T08:53:59.200Z,22.83
2023-05-09T08:54:59.175Z,22.73
2023-05-09T08:55:59.163Z,22.64
2023-05-09T08:56:59.137Z,22.43
2023-05-09T08:57:59.136Z,22.24
2023-05-09T08:58:59.238Z,22.12
2023-05-09T08:59:59.123Z,21.94
2023-05-09T09:00:59.123Z,21.82
2023-05-09T09:01:59.135Z,21.67
2023-05-09T09:02:59.139Z,21.47
2023-05-09T09:03:59.081Z,21.54
2023-05-09T09:04:59.111Z,21.69
2023-05-09T09:05:59.654Z,21.74
2023-05-09T09:06:59.057Z,21.65
2023-05-09T09:07:59.051Z,21.53
2023-05-09T09:08:59.041Z,21.27
2023-05-09T09:09:59.309Z,21.12
2023-05-09T09:10:58.992Z,20.79
2023-05-09T09:11:59.001Z,20.76
2023-05-09T09:12:59.825Z,20.69
2023-05-09T09:13:59.766Z,20.47
2023-05-09T09:14:58.966Z,20.18
2023-05-09T09:15:59.027Z,19.95
2023-05-09T09:16:59.026Z,19.99
2023-05-09T09:17:58.958Z,19.99
2023-05-09T09:18:59.228Z,19.92
2023-05-09T09:19:58.909Z,19.86
2023-05-09T09:20:58.914Z,19.80
2023-05-09T09:21:58.911Z,19.73
2023-05-09T09:22:58.910Z,19.76
2023-05-09T09:23:58.868Z,19.83
2023-05-09T09:24:58.859Z,19.88
2023-05-09T09:25:59.959Z,19.88
2023-05-09T09:26:58.827Z,20.20
2023-05-09T09:27:58.826Z,20.50
2023-05-09T09:28:58.823Z,20.77
2023-05-09T09:29:58.803Z,20.99
2023-05-09T09:30:58.810Z,21.40
2023-05-09T09:31:58.837Z,21.65
2023-05-09T09:32:58.855Z,21.71
2023-05-09T09:33:58.774Z,21.80
2023-05-09T09:34:58.747Z,21.79
2023-05-09T09:35:58.746Z,21.56
2023-05-09T09:36:58.729Z,21.71
2023-05-09T09:38:00.045Z,21.91
2023-05-09T09:38:58.698Z,22.02
2023-05-09T09:39:58.696Z,21.83
2023-05-09T09:40:58.695Z,21.59
2023-05-09T09:41:58.694Z,21.47
2023-05-09T09:42:58.650Z,21.67
2023-05-09T09:43:58.931Z,21.50
2023-05-09T09:44:58.628Z,21.65
2023-05-09T09:45:58.777Z,21.94
2023-05-09T09:46:58.607Z,22.18
2023-05-09T09:47:58.752Z,22.43
2023-05-09T09:48:58.603Z,22.58
2023-05-09T09:49:58.600Z,22.62
2023-05-09T09:50:58.596Z,22.58
2023-05-09T09:51:58.596Z,22.62
2023-05-09T09:52:58.546Z,22.77
2023-05-09T09:53:58.609Z,22.86
2023-05-09T09:54:58.523Z,22.79
2023-05-09T09:55:58.615Z,22.82
2023-05-09T09:56:58.513Z,22.83
2023-05-09T09:57:58.521Z,22.94
2023-05-09T09:58:58.499Z,22.91
2023-05-09T09:59:58.492Z,22.92
2023-05-09T10:00:58.501Z,22.79
2023-05-09T10:01:58.529Z,22.85
2023-05-09T10:02:58.487Z,22.86
2023-05-09T10:03:58.481Z,22.52
2023-05-09T10:04:58.417Z,22.54
2023-05-09T10:05:58.424Z,22.21
2023-05-09T10:06:58.402Z,22.20
2023-05-09T10:07:58.409Z,22.12
2023-05-09T10:08:58.387Z,22.27
2023-05-09T10:09:58.378Z,22.64
2023-05-09T10:10:58.353Z,22.70
2023-05-09T10:11:58.376Z,22.98
2023-05-09T10:12:58.399Z,23.17
2023-05-09T10:13:58.388Z,23.28
2023-05-09T10:14:58.317Z,23.28
2023-05-09T10:15:58.594Z,23.35
2023-05-09T10:16:58.393Z,23.54
2023-05-09T10:17:58.775Z,23.46
2023-05-09T10:18:58.338Z,22.97
2023-05-09T10:19:58.276Z,23.04
2023-05-09T10:20:58.248Z,23.09
2023-05-09T10:21:59.067Z,23.10
2023-05-09T10:22:58.239Z,23.31
2023-05-09T10:23:58.246Z,23.58
2023-05-09T10:24:58.213Z,23.58
2023-05-09T10:25:58.267Z,23.61
2023-05-09T10:26:58.218Z,23.87
2023-05-09T10:27:58.193Z,23.15
2023-05-09T10:28:58.176Z,23.09
2023-05-09T10:29:58.197Z,23.05
2023-05-09T10:30:58.696Z,22.92
2023-05-09T10:31:58.146Z,22.65
2023-05-09T10:32:58.179Z,22.46
2023-05-09T10:33:58.139Z,22.42
2023-05-09T10:34:58.098Z,22.57
2023-05-09T10:35:58.098Z,22.79
2023-05-09T10:36:58.085Z,22.90
2023-05-09T10:37:58.099Z,23.09
2023-05-09T10:38:58.065Z,23.16
2023-05-09T10:39:58.064Z,23.04
2023-05-09T10:40:58.050Z,23.19
2023-05-09T10:41:58.226Z,23.20
2023-05-09T10:42:58.023Z,23.36
2023-05-09T10:43:58.017Z,23.36
2023-05-09T10:44:58.145Z,23.53
2023-05-09T10:45:58.254Z,23.61
2023-05-09T10:46:58.079Z,23.65
2023-05-09T10:47:57.992Z,23.53
2023-05-09T10:48:57.964Z,23.58
2023-05-09T10:49:57.955Z,23.39
2023-05-09T10:50:58.038Z,23.07
2023-05-09T10:51:57.925Z,22.91
2023-05-09T10:52:57.913Z,23.15
2023-05-09T10:53:57.936Z,23.10
2023-05-09T10:54:57.908Z,23.05
2023-05-09T10:55:57.883Z,23.43
2023-05-09T10:56:57.889Z,23.87
2023-05-09T10:57:57.878Z,24.28
2023-05-09T10:58:58.644Z,24.16
2023-05-09T10:59:57.852Z,24.27
2023-05-09T11:00:57.834Z,23.76
2023-05-09T11:01:57.902Z,23.54
2023-05-09T11:02:57.892Z,23.53
2023-05-09T11:03:57.858Z,23.22
2023-05-09T11:04:57.786Z,23.13
2023-05-09T11:05:57.851Z,23.16
2023-05-09T11:06:58.407Z,23.09
2023-05-09T11:07:57.760Z,23.32
2023-05-09T11:08:57.742Z,23.31
2023-05-09T11:09:57.762Z,23.40
2023-05-09T11:10:57.726Z,23.54
2023-05-09T11:11:57.728Z,23.76
2023-05-09T11:12:58.404Z,24.00
2023-05-09T11:13:57.702Z,24.27
2023-05-09T11:14:57.685Z,24.49
2023-05-09T11:15:57.691Z,24.76
2023-05-09T11:16:57.655Z,24.87
2023-05-09T11:17:57.683Z,24.83
2023-05-09T11:18:57.655Z,24.73
2023-05-09T11:19:58.091Z,24.76
2023-05-09T11:20:57.611Z,24.81
2023-05-09T11:21:57.624Z,24.69
2023-05-09T11:22:57.623Z,24.62
2023-05-09T11:23:57.596Z,24.64
2023-05-09T11:24:57.586Z,24.22
2023-05-09T11:25:57.578Z,24.03
2023-05-09T11:26:57.554Z,23.98
2023-05-09T11:27:57.551Z,24.06
2023-05-09T11:28:57.538Z,24.20
2023-05-09T11:29:57.537Z,23.93
2023-05-09T11:30:57.527Z,23.85
2023-05-09T11:31:57.650Z,23.79
2023-05-09T11:32:57.514Z,24.05
2023-05-09T11:33:57.485Z,24.02
2023-05-09T11:34:57.505Z,23.90
2023-05-09T11:35:57.477Z,24.02
2023-05-09T11:36:57.457Z,24.08
2023-05-09T11:37:57.451Z,24.24
2023-05-09T11:38:57.448Z,24.32
2023-05-09T11:39:57.439Z,24.03
2023-05-09T11:40:57.411Z,24.00
2023-05-09T11:41:57.406Z,24.05
2023-05-09T11:42:58.624Z,24.03
2023-05-09T11:43:57.395Z,24.10
2023-05-09T11:44:57.380Z,24.27
2023-05-09T11:45:58.196Z,24.28
2023-05-09T11:46:57.346Z,24.40
2023-05-09T11:47:57.434Z,24.49
2023-05-09T11:48:57.339Z,24.32
2023-05-09T11:49:57.339Z,24.40
2023-05-09T11:50:57.389Z,24.46
2023-05-09T11:51:57.293Z,24.57
2023-05-09T11:52:57.297Z,24.52
2023-05-09T11:53:57.275Z,24.28
2023-05-09T11:54:58.075Z,24.09
2023-05-09T11:55:57.242Z,23.97
2023-05-09T11:56:57.255Z,24.02
2023-05-09T11:57:57.225Z,24.06
2023-05-09T11:58:58.029Z,23.94
2023-05-09T11:59:57.205Z,23.83
2023-05-09T12:00:57.215Z,23.88
2023-05-09T12:01:57.187Z,23.84
2023-05-09T12:02:57.238Z,23.73
2023-05-09T12:03:58.681Z,23.27
2023-05-09T12:04:57.155Z,23.51
2023-05-09T12:05:57.179Z,23.68
2023-05-09T12:06:57.143Z,23.85
2023-05-09T12:07:57.951Z,23.73
2023-05-09T12:08:57.105Z,23.58
2023-05-09T12:09:57.097Z,23.51
2023-05-09T12:10:57.100Z,23.70
2023-05-09T12:11:57.073Z,24.03
2023-05-09T12:12:57.136Z,24.08
2023-05-09T12:13:57.049Z,24.15
2023-05-09T12:14:57.050Z,24.12
2023-05-09T12:15:57.087Z,24.06
2023-05-09T12:16:57.033Z,24.09
2023-05-09T12:17:57.017Z,24.02
2023-05-09T12:18:57.012Z,23.93
2023-05-09T12:19:56.986Z,23.58
2023-05-09T12:20:56.991Z,23.51
2023-05-09T12:21:56.966Z,23.63
2023-05-09T12:22:56.970Z,23.60
2023-05-09T12:23:56.953Z,23.90
2023-05-09T12:24:56.945Z,23.87
2023-05-09T12:25:56.947Z,23.87
2023-05-09T12:26:57.074Z,23.85
2023-05-09T12:27:56.907Z,23.69
2023-05-09T12:28:56.908Z,23.76
2023-05-09T12:29:56.885Z,23.54
2023-05-09T12:30:56.956Z,23.66
2023-05-09T12:31:56.869Z,23.76
2023-05-09T12:32:56.872Z,23.93
2023-05-09T12:33:56.848Z,23.91
2023-05-09T12:34:56.838Z,23.70
2023-05-09T12:35:56.818Z,23.53
2023-05-09T12:36:56.822Z,23.35
2023-05-09T12:37:56.794Z,23.27
2023-05-09T12:38:56.808Z,23.17
2023-05-09T12:39:56.819Z,23.19
2023-05-09T12:40:56.771Z,23.13
2023-05-09T12:42:01.665Z,23.04
2023-05-09T12:42:57.757Z,23.04
2023-05-09T12:43:56.802Z,23.07
2023-05-09T12:44:56.743Z,23.16
2023-05-09T12:45:56.702Z,23.07
2023-05-09T12:46:56.767Z,23.07
2023-05-09T12:47:56.735Z,23.20
2023-05-09T12:48:56.690Z,23.38
2023-05-09T12:49:56.673Z,23.38
2023-05-09T12:50:56.683Z,23.33
2023-05-09T12:51:56.649Z,23.38